DLH715 RJTT-EDDM
Flight info
| Callsign | DLH715 |
|---|---|
| Flight time | N/A |
| Altitude | 35000 |
| Route | INUBO Y808 PUTER A590 POWAL DCT OPAKE DCT MARCC/N0474F370 DCT JUJXI DCT 76N160W DCT PEASY/N0481F390 DCT 85N120W 85N100W 85N080W DCT PELRI/M084F390 DCT 81N020W 73N000W/N0477F390 DCT TEDVU/N0478F410 DCT NERDO DCT RAXLU DCT GARLU DCT EMBOX DCT SODRO/N0452F310 T703 LULAR/N0450F300 T105 LANDU LANDU2B |
| Aircraft | A359/H-SADE2E3GHIJ1J2J3J4J5M1P2RWXYZ/LB1D1 |
Departure
| Time | 2026-02-21 22:12 |
|---|---|
| Airport | Tokyo Haneda International Airport (RJTT) |
Arrival
| Time | N/A |
|---|---|
| Airport | Munich Airport (EDDM) |
| Time | Latitude | Longitude | Altitude | Speed | Heading |
|---|---|---|---|---|---|
| 2026-02-21 21:37 | 35.54350 | 139.77189 | 29 ft | 0 kts | 240° |
| 2026-02-21 21:58 | 35.54355 | 139.77199 | 29 ft | 3 kts | 241° |
| 2026-02-21 21:58 | 35.54365 | 139.77221 | 28 ft | 3 kts | 244° |
| 2026-02-21 21:58 | 35.54373 | 139.77243 | 28 ft | 3 kts | 244° |
| 2026-02-21 21:59 | 35.54382 | 139.77264 | 28 ft | 2 kts | 240° |
| 2026-02-21 21:59 | 35.54391 | 139.77280 | 26 ft | 3 kts | 210° |
| 2026-02-21 21:59 | 35.54405 | 139.77283 | 28 ft | 3 kts | 153° |
| 2026-02-21 21:59 | 35.54422 | 139.77270 | 27 ft | 3 kts | 143° |
| 2026-02-21 22:00 | 35.54436 | 139.77258 | 28 ft | 1 kts | 151° |
| 2026-02-21 22:00 | 35.54438 | 139.77256 | 29 ft | 5 kts | 152° |
| 2026-02-21 22:02 | 35.54434 | 139.77259 | 28 ft | 3 kts | 152° |
| 2026-02-21 22:02 | 35.54388 | 139.77291 | 29 ft | 10 kts | 148° |
| 2026-02-21 22:02 | 35.54357 | 139.77368 | 29 ft | 11 kts | 79° |
| 2026-02-21 22:03 | 35.54398 | 139.77468 | 29 ft | 14 kts | 59° |
| 2026-02-21 22:03 | 35.54448 | 139.77573 | 29 ft | 15 kts | 60° |
| 2026-02-21 22:03 | 35.54493 | 139.77690 | 29 ft | 15 kts | 90° |
| 2026-02-21 22:03 | 35.54423 | 139.77769 | 29 ft | 14 kts | 151° |
| 2026-02-21 22:04 | 35.54335 | 139.77831 | 29 ft | 15 kts | 150° |
| 2026-02-21 22:04 | 35.54246 | 139.77896 | 29 ft | 15 kts | 149° |
| 2026-02-21 22:04 | 35.54154 | 139.77961 | 29 ft | 15 kts | 151° |
| 2026-02-21 22:04 | 35.54069 | 139.78035 | 29 ft | 14 kts | 116° |
| 2026-02-21 22:05 | 35.54095 | 139.78139 | 30 ft | 12 kts | 60° |
| 2026-02-21 22:05 | 35.54135 | 139.78223 | 31 ft | 11 kts | 60° |
| 2026-02-21 22:05 | 35.54176 | 139.78309 | 30 ft | 13 kts | 58° |
| 2026-02-21 22:05 | 35.54225 | 139.78411 | 30 ft | 15 kts | 59° |
| 2026-02-21 22:06 | 35.54282 | 139.78529 | 31 ft | 17 kts | 60° |
| 2026-02-21 22:06 | 35.54344 | 139.78662 | 31 ft | 19 kts | 59° |
| 2026-02-21 22:06 | 35.54416 | 139.78813 | 29 ft | 21 kts | 58° |
| 2026-02-21 22:06 | 35.54493 | 139.78974 | 31 ft | 22 kts | 60° |
| 2026-02-21 22:07 | 35.54569 | 139.79137 | 31 ft | 22 kts | 60° |
| 2026-02-21 22:07 | 35.54648 | 139.79303 | 30 ft | 22 kts | 57° |
| 2026-02-21 22:07 | 35.54727 | 139.79466 | 30 ft | 22 kts | 59° |
| 2026-02-21 22:07 | 35.54747 | 139.79573 | 30 ft | 2 kts | 120° |
| 2026-02-21 22:08 | 35.54727 | 139.79593 | 30 ft | 8 kts | 146° |
| 2026-02-21 22:08 | 35.54658 | 139.79641 | 30 ft | 14 kts | 151° |
| 2026-02-21 22:08 | 35.54559 | 139.79710 | 30 ft | 18 kts | 150° |
| 2026-02-21 22:08 | 35.54437 | 139.79797 | 30 ft | 21 kts | 149° |
| 2026-02-21 22:09 | 35.54308 | 139.79888 | 30 ft | 22 kts | 151° |
| 2026-02-21 22:09 | 35.54175 | 139.79984 | 30 ft | 22 kts | 148° |
| 2026-02-21 22:09 | 35.54041 | 139.80080 | 30 ft | 22 kts | 151° |
| 2026-02-21 22:09 | 35.53912 | 139.80171 | 30 ft | 17 kts | 149° |
| 2026-02-21 22:10 | 35.53875 | 139.80268 | 30 ft | 11 kts | 66° |
| 2026-02-21 22:10 | 35.53919 | 139.80368 | 30 ft | 15 kts | 60° |
| 2026-02-21 22:10 | 35.53981 | 139.80472 | 30 ft | 14 kts | 34° |
| 2026-02-21 22:10 | 35.54064 | 139.80444 | 30 ft | 13 kts | 329° |
| 2026-02-21 22:11 | 35.54164 | 139.80374 | 30 ft | 24 kts | 332° |
| 2026-02-21 22:11 | 35.54487 | 139.80145 | 30 ft | 85 kts | 330° |
| 2026-02-21 22:11 | 35.55167 | 139.79665 | 30 ft | 139 kts | 328° |
| 2026-02-21 22:11 | 35.56107 | 139.79012 | 310 ft | 157 kts | 332° |
| 2026-02-21 22:12 | 35.57069 | 139.78360 | 823 ft | 162 kts | 331° |
| 2026-02-21 22:12 | 35.58202 | 139.78162 | 1160 ft | 174 kts | 18° |
| 2026-02-21 22:12 | 35.59208 | 139.78964 | 1723 ft | 174 kts | 43° |
| 2026-02-21 22:12 | 35.60118 | 139.79969 | 2159 ft | 178 kts | 44° |
| 2026-02-21 22:13 | 35.61050 | 139.81005 | 2458 ft | 183 kts | 43° |
| 2026-02-21 22:13 | 35.62025 | 139.82033 | 2766 ft | 186 kts | 40° |
| 2026-02-21 22:13 | 35.63038 | 139.83033 | 3110 ft | 187 kts | 38° |
| 2026-02-21 22:13 | 35.64103 | 139.84017 | 3299 ft | 199 kts | 37° |
| 2026-02-21 22:14 | 35.65326 | 139.84922 | 3394 ft | 215 kts | 15° |
| 2026-02-21 22:14 | 35.66840 | 139.85248 | 3566 ft | 228 kts | 6° |
| 2026-02-21 22:14 | 35.68450 | 139.85519 | 3770 ft | 242 kts | 6° |
| 2026-02-21 22:14 | 35.70184 | 139.85584 | 3926 ft | 257 kts | 347° |
| 2026-02-21 22:15 | 35.71817 | 139.84670 | 4197 ft | 262 kts | 322° |
| 2026-02-21 22:15 | 35.73291 | 139.83343 | 4707 ft | 265 kts | 319° |
| 2026-02-21 22:15 | 35.74879 | 139.82151 | 5210 ft | 272 kts | 335° |
| 2026-02-21 22:15 | 35.76768 | 139.81826 | 5720 ft | 281 kts | 5° |
| 2026-02-21 22:16 | 35.78659 | 139.82494 | 6288 ft | 285 kts | 20° |
| 2026-02-21 22:16 | 35.80497 | 139.83435 | 6854 ft | 288 kts | 22° |
| 2026-02-21 22:16 | 35.82343 | 139.84410 | 7440 ft | 289 kts | 21° |
| 2026-02-21 22:16 | 35.84168 | 139.85366 | 8060 ft | 289 kts | 21° |
| 2026-02-21 22:17 | 35.86027 | 139.86330 | 8694 ft | 290 kts | 21° |
| 2026-02-21 22:17 | 35.87892 | 139.87289 | 9336 ft | 291 kts | 21° |
| 2026-02-21 22:17 | 35.89799 | 139.88132 | 9953 ft | 291 kts | 11° |
| 2026-02-21 22:17 | 35.91822 | 139.88218 | 10338 ft | 297 kts | 347° |
| 2026-02-21 22:18 | 35.93838 | 139.87466 | 10582 ft | 310 kts | 338° |
| 2026-02-21 22:18 | 35.95895 | 139.86474 | 10828 ft | 324 kts | 336° |
| 2026-02-21 22:18 | 35.98106 | 139.85681 | 11048 ft | 341 kts | 350° |
| 2026-02-21 22:18 | 36.00528 | 139.85823 | 11261 ft | 359 kts | 12° |
| 2026-02-21 22:19 | 36.02945 | 139.86790 | 11541 ft | 371 kts | 19° |
| 2026-02-21 22:19 | 36.05376 | 139.87946 | 11985 ft | 377 kts | 20° |
| 2026-02-21 22:19 | 36.07828 | 139.89124 | 12490 ft | 381 kts | 19° |
| 2026-02-21 22:19 | 36.10312 | 139.90308 | 13003 ft | 384 kts | 19° |
| 2026-02-21 22:20 | 36.12820 | 139.91495 | 13529 ft | 388 kts | 19° |
| 2026-02-21 22:20 | 36.15348 | 139.92699 | 14040 ft | 391 kts | 20° |
| 2026-02-21 22:20 | 36.17754 | 139.94314 | 14481 ft | 398 kts | 35° |
| 2026-02-21 22:20 | 36.19680 | 139.96786 | 14937 ft | 404 kts | 55° |
| 2026-02-21 22:21 | 36.20846 | 139.99949 | 15390 ft | 408 kts | 73° |
| 2026-02-21 22:21 | 36.21481 | 140.03389 | 15845 ft | 411 kts | 78° |
| 2026-02-21 22:21 | 36.22020 | 140.06878 | 16289 ft | 415 kts | 79° |
| 2026-02-21 22:21 | 36.22560 | 140.10406 | 16742 ft | 418 kts | 78° |
| 2026-02-21 22:22 | 36.23113 | 140.13958 | 17089 ft | 420 kts | 78° |
| 2026-02-21 22:22 | 36.23671 | 140.17509 | 17158 ft | 421 kts | 78° |
| 2026-02-21 22:22 | 36.24212 | 140.21076 | 17160 ft | 422 kts | 81° |
| 2026-02-21 22:22 | 36.24350 | 140.24708 | 17153 ft | 423 kts | 95° |
| 2026-02-21 22:23 | 36.23734 | 140.28257 | 17151 ft | 422 kts | 111° |
| 2026-02-21 22:23 | 36.22359 | 140.31448 | 17285 ft | 422 kts | 128° |
| 2026-02-21 22:23 | 36.20346 | 140.34080 | 17728 ft | 421 kts | 141° |
| 2026-02-21 22:23 | 36.18068 | 140.36358 | 18199 ft | 423 kts | 144° |
| 2026-02-21 22:24 | 36.15730 | 140.38593 | 18623 ft | 426 kts | 144° |
| 2026-02-21 22:24 | 36.13375 | 140.40842 | 19023 ft | 429 kts | 144° |
| 2026-02-21 22:24 | 36.11008 | 140.43112 | 19427 ft | 433 kts | 144° |
| 2026-02-21 22:24 | 36.08624 | 140.45404 | 19828 ft | 436 kts | 144° |
| 2026-02-21 22:25 | 36.06219 | 140.47720 | 20257 ft | 439 kts | 144° |
| 2026-02-21 22:25 | 36.03806 | 140.50045 | 20681 ft | 442 kts | 144° |
| 2026-02-21 22:25 | 36.01372 | 140.52389 | 21105 ft | 445 kts | 144° |
| 2026-02-21 22:25 | 35.98921 | 140.54748 | 21521 ft | 448 kts | 144° |
| 2026-02-21 22:26 | 35.96455 | 140.57121 | 21935 ft | 451 kts | 144° |
| 2026-02-21 22:26 | 35.93973 | 140.59508 | 22341 ft | 454 kts | 144° |
| 2026-02-21 22:26 | 35.91504 | 140.61879 | 22748 ft | 457 kts | 144° |
| 2026-02-21 22:26 | 35.88986 | 140.64296 | 23151 ft | 460 kts | 144° |
| 2026-02-21 22:27 | 35.86418 | 140.66759 | 23549 ft | 463 kts | 144° |
| 2026-02-21 22:27 | 35.83900 | 140.69172 | 23910 ft | 466 kts | 144° |
| 2026-02-21 22:27 | 35.81333 | 140.71631 | 24259 ft | 469 kts | 144° |
| 2026-02-21 22:27 | 35.78751 | 140.74101 | 24602 ft | 471 kts | 144° |
| 2026-02-21 22:28 | 35.76179 | 140.76633 | 24922 ft | 475 kts | 141° |
| 2026-02-21 22:28 | 35.73855 | 140.79540 | 25250 ft | 480 kts | 130° |
| 2026-02-21 22:28 | 35.71972 | 140.82954 | 25570 ft | 484 kts | 119° |
| 2026-02-21 22:28 | 35.70562 | 140.86723 | 25887 ft | 487 kts | 112° |
| 2026-02-21 22:29 | 35.69334 | 140.90619 | 26192 ft | 489 kts | 110° |
| 2026-02-21 22:29 | 35.68187 | 140.94564 | 26425 ft | 492 kts | 109° |
| 2026-02-21 22:29 | 35.67063 | 140.98545 | 26684 ft | 494 kts | 109° |
| 2026-02-21 22:29 | 35.65932 | 141.02546 | 26949 ft | 496 kts | 109° |
| 2026-02-21 22:30 | 35.64785 | 141.06556 | 27191 ft | 498 kts | 109° |
| 2026-02-21 22:30 | 35.63617 | 141.10578 | 27435 ft | 501 kts | 110° |
| 2026-02-21 22:30 | 35.62432 | 141.14609 | 27703 ft | 503 kts | 110° |
| 2026-02-21 22:30 | 35.61234 | 141.18655 | 27929 ft | 505 kts | 110° |
| 2026-02-21 22:31 | 35.60025 | 141.22720 | 28174 ft | 507 kts | 110° |
| 2026-02-21 22:31 | 35.58810 | 141.26796 | 28433 ft | 509 kts | 110° |
| 2026-02-21 22:31 | 35.57588 | 141.30889 | 28668 ft | 511 kts | 110° |
| 2026-02-21 22:31 | 35.56362 | 141.34991 | 28912 ft | 513 kts | 110° |
| 2026-02-21 22:32 | 35.55129 | 141.39112 | 29134 ft | 516 kts | 110° |
| 2026-02-21 22:32 | 35.53889 | 141.43252 | 29338 ft | 517 kts | 110° |
| 2026-02-21 22:32 | 35.52644 | 141.47405 | 29546 ft | 519 kts | 110° |
| 2026-02-21 22:32 | 35.51393 | 141.51572 | 29759 ft | 521 kts | 110° |
| 2026-02-21 22:33 | 35.50135 | 141.55758 | 29955 ft | 523 kts | 110° |
| 2026-02-21 22:33 | 35.48872 | 141.59951 | 30139 ft | 525 kts | 110° |
| 2026-02-21 22:33 | 35.47603 | 141.64161 | 30350 ft | 527 kts | 110° |
| 2026-02-21 22:33 | 35.46328 | 141.68383 | 30494 ft | 529 kts | 110° |
| 2026-02-21 22:34 | 35.45151 | 141.72657 | 30645 ft | 530 kts | 104° |
| 2026-02-21 22:34 | 35.44446 | 141.77095 | 30763 ft | 531 kts | 95° |
| 2026-02-21 22:34 | 35.44199 | 141.81610 | 30915 ft | 532 kts | 91° |
| 2026-02-21 22:34 | 35.44091 | 141.86147 | 31069 ft | 533 kts | 89° |
| 2026-02-21 22:35 | 35.44052 | 141.90693 | 31208 ft | 534 kts | 88° |
| 2026-02-21 22:35 | 35.44042 | 141.95253 | 31375 ft | 535 kts | 88° |
| 2026-02-21 22:35 | 35.44035 | 141.99815 | 31565 ft | 535 kts | 88° |
| 2026-02-21 22:35 | 35.44022 | 142.04380 | 31752 ft | 536 kts | 88° |
| 2026-02-21 22:36 | 35.44007 | 142.07406 | 31868 ft | 536 kts | 88° |
| 2026-02-21 22:36 | 35.43977 | 142.11978 | 32055 ft | 537 kts | 89° |
| 2026-02-21 22:36 | 35.43939 | 142.16554 | 32228 ft | 537 kts | 89° |
| 2026-02-21 22:36 | 35.43896 | 142.21134 | 32397 ft | 537 kts | 89° |
| 2026-02-21 22:37 | 35.43850 | 142.25717 | 32552 ft | 538 kts | 89° |
| 2026-02-21 22:37 | 35.43802 | 142.30304 | 32737 ft | 538 kts | 89° |
| 2026-02-21 22:37 | 35.43752 | 142.34900 | 32901 ft | 539 kts | 89° |
| 2026-02-21 22:37 | 35.43700 | 142.39492 | 33067 ft | 539 kts | 89° |
| 2026-02-21 22:38 | 35.43647 | 142.44087 | 33230 ft | 539 kts | 89° |
| 2026-02-21 22:38 | 35.43593 | 142.48686 | 33389 ft | 540 kts | 89° |
| 2026-02-21 22:38 | 35.43537 | 142.53289 | 33553 ft | 540 kts | 89° |
| 2026-02-21 22:38 | 35.43483 | 142.57899 | 33706 ft | 540 kts | 89° |
| 2026-02-21 22:39 | 35.43426 | 142.62505 | 33884 ft | 541 kts | 89° |
| 2026-02-21 22:39 | 35.43363 | 142.67118 | 34023 ft | 541 kts | 89° |
| 2026-02-21 22:39 | 35.43298 | 142.71732 | 34167 ft | 542 kts | 89° |
| 2026-02-21 22:39 | 35.43232 | 142.76351 | 34299 ft | 542 kts | 89° |
| 2026-02-21 22:40 | 35.43164 | 142.80968 | 34405 ft | 543 kts | 89° |
| 2026-02-21 22:40 | 35.43094 | 142.85597 | 34504 ft | 543 kts | 89° |
| 2026-02-21 22:40 | 35.43024 | 142.90230 | 34614 ft | 544 kts | 89° |
| 2026-02-21 22:40 | 35.42951 | 142.94872 | 34711 ft | 544 kts | 89° |
| 2026-02-21 22:41 | 35.42877 | 142.99516 | 34821 ft | 545 kts | 89° |
| 2026-02-21 22:41 | 35.42801 | 143.04159 | 34937 ft | 546 kts | 89° |
| 2026-02-21 22:41 | 35.42643 | 143.13471 | 35124 ft | 547 kts | 89° |
| 2026-02-21 22:42 | 35.43767 | 143.27282 | 35222 ft | 542 kts | 66° |
| 2026-02-21 22:42 | 35.45273 | 143.31471 | 35207 ft | 533 kts | 54° |
| 2026-02-21 22:43 | 35.47336 | 143.35186 | 35210 ft | 522 kts | 43° |
| 2026-02-21 22:43 | 35.49862 | 143.38318 | 35209 ft | 511 kts | 32° |
| 2026-02-21 22:43 | 35.52719 | 143.40836 | 35213 ft | 503 kts | 25° |
| 2026-02-21 22:44 | 35.58703 | 143.45259 | 35214 ft | 501 kts | 22° |
| 2026-02-21 22:44 | 35.64713 | 143.49484 | 35213 ft | 501 kts | 22° |
| 2026-02-21 22:45 | 35.70785 | 143.53797 | 35219 ft | 500 kts | 23° |
| 2026-02-21 22:45 | 35.76745 | 143.58094 | 35211 ft | 500 kts | 23° |
| 2026-02-21 22:46 | 35.82731 | 143.62446 | 35211 ft | 500 kts | 23° |
| 2026-02-21 22:46 | 35.88718 | 143.66798 | 35211 ft | 500 kts | 23° |
| 2026-02-21 22:47 | 35.94706 | 143.71153 | 35213 ft | 500 kts | 23° |
| 2026-02-21 22:47 | 36.00684 | 143.75510 | 35218 ft | 499 kts | 23° |
| 2026-02-21 22:48 | 36.06651 | 143.79869 | 35217 ft | 497 kts | 23° |
| 2026-02-21 22:48 | 36.12603 | 143.84223 | 35216 ft | 497 kts | 23° |
| 2026-02-21 22:49 | 36.18554 | 143.88585 | 35216 ft | 497 kts | 23° |
| 2026-02-21 22:49 | 36.24501 | 143.92954 | 35225 ft | 497 kts | 23° |
| 2026-02-21 22:50 | 36.30446 | 143.97337 | 35221 ft | 497 kts | 23° |
| 2026-02-21 22:50 | 36.36385 | 144.01714 | 35216 ft | 497 kts | 23° |
| 2026-02-21 22:51 | 36.45298 | 144.08301 | 35215 ft | 497 kts | 23° |
| 2026-02-21 22:51 | 36.51234 | 144.12699 | 35238 ft | 497 kts | 23° |
| 2026-02-21 22:52 | 36.57162 | 144.17101 | 35221 ft | 496 kts | 23° |
| 2026-02-21 22:52 | 36.63087 | 144.21507 | 35221 ft | 496 kts | 23° |
| 2026-02-21 22:53 | 36.69008 | 144.25918 | 35236 ft | 496 kts | 23° |
| 2026-02-21 22:53 | 36.74910 | 144.30324 | 35228 ft | 494 kts | 23° |
| 2026-02-21 22:54 | 36.80767 | 144.34705 | 35226 ft | 494 kts | 23° |
| 2026-02-21 22:54 | 36.86692 | 144.39153 | 35230 ft | 494 kts | 23° |
| 2026-02-21 22:55 | 36.92516 | 144.43533 | 35230 ft | 494 kts | 23° |
| 2026-02-21 22:55 | 36.98426 | 144.47985 | 35233 ft | 494 kts | 24° |
| 2026-02-21 22:56 | 37.04311 | 144.52428 | 35254 ft | 492 kts | 24° |